sensor_id;sensor_type;location;lat;lon;timestamp;P1;durP1;ratioP1;P2;durP2;ratioP2
12165;SDS011;6146;48.128;11.476;2022-12-18T00:01:19;35.37;;;21.03;;
12165;SDS011;6146;48.128;11.476;2022-12-18T00:03:46;32.07;;;20.57;;
12165;SDS011;6146;48.128;11.476;2022-12-18T00:06:12;36.93;;;22.00;;
12165;SDS011;6146;48.128;11.476;2022-12-18T00:08:38;34.07;;;20.17;;
12165;SDS011;6146;48.128;11.476;2022-12-18T00:11:05;35.07;;;20.43;;
12165;SDS011;6146;48.128;11.476;2022-12-18T00:13:32;33.93;;;19.70;;
12165;SDS011;6146;48.128;11.476;2022-12-18T00:16:05;33.10;;;19.80;;
12165;SDS011;6146;48.128;11.476;2022-12-18T00:18:35;40.33;;;21.67;;
12165;SDS011;6146;48.128;11.476;2022-12-18T00:21:01;33.23;;;20.97;;
12165;SDS011;6146;48.128;11.476;2022-12-18T00:23:29;38.00;;;20.73;;
12165;SDS011;6146;48.128;11.476;2022-12-18T00:25:59;39.83;;;21.60;;
12165;SDS011;6146;48.128;11.476;2022-12-18T00:28:28;42.03;;;21.43;;
12165;SDS011;6146;48.128;11.476;2022-12-18T00:33:25;34.37;;;20.10;;
12165;SDS011;6146;48.128;11.476;2022-12-18T00:35:51;35.07;;;20.37;;
12165;SDS011;6146;48.128;11.476;2022-12-18T00:38:16;39.37;;;20.83;;
12165;SDS011;6146;48.128;11.476;2022-12-18T00:40:42;35.03;;;20.70;;
12165;SDS011;6146;48.128;11.476;2022-12-18T00:43:08;34.37;;;19.13;;
12165;SDS011;6146;48.128;11.476;2022-12-18T00:45:34;37.80;;;20.50;;
12165;SDS011;6146;48.128;11.476;2022-12-18T00:47:59;37.27;;;20.83;;
12165;SDS011;6146;48.128;11.476;2022-12-18T00:50:25;36.17;;;20.80;;
12165;SDS011;6146;48.128;11.476;2022-12-18T00:52:51;31.77;;;19.23;;
12165;SDS011;6146;48.128;11.476;2022-12-18T00:55:17;31.40;;;18.77;;
12165;SDS011;6146;48.128;11.476;2022-12-18T00:57:42;37.27;;;20.90;;
12165;SDS011;6146;48.128;11.476;2022-12-18T01:00:10;31.87;;;19.27;;
12165;SDS011;6146;48.128;11.476;2022-12-18T01:02:38;37.50;;;20.97;;
12165;SDS011;6146;48.128;11.476;2022-12-18T01:05:04;37.93;;;20.43;;
12165;SDS011;6146;48.128;11.476;2022-12-18T01:07:29;36.90;;;20.23;;
12165;SDS011;6146;48.128;11.476;2022-12-18T01:09:55;37.33;;;20.97;;
12165;SDS011;6146;48.128;11.476;2022-12-18T01:12:21;32.53;;;19.57;;
12165;SDS011;6146;48.128;11.476;2022-12-18T01:14:46;34.77;;;19.37;;
12165;SDS011;6146;48.128;11.476;2022-12-18T01:17:12;30.67;;;18.37;;
12165;SDS011;6146;48.128;11.476;2022-12-18T01:19:37;32.57;;;18.57;;
12165;SDS011;6146;48.128;11.476;2022-12-18T01:22:03;32.73;;;18.93;;
12165;SDS011;6146;48.128;11.476;2022-12-18T01:24:29;34.77;;;18.67;;
12165;SDS011;6146;48.128;11.476;2022-12-18T01:26:54;29.73;;;17.87;;
12165;SDS011;6146;48.128;11.476;2022-12-18T01:29:22;34.30;;;19.73;;
12165;SDS011;6146;48.128;11.476;2022-12-18T01:31:47;33.40;;;18.40;;
12165;SDS011;6146;48.128;11.476;2022-12-18T01:34:13;28.97;;;18.13;;
12165;SDS011;6146;48.128;11.476;2022-12-18T01:36:39;27.37;;;16.77;;
12165;SDS011;6146;48.128;11.476;2022-12-18T01:39:06;31.50;;;17.53;;
12165;SDS011;6146;48.128;11.476;2022-12-18T01:41:36;29.23;;;15.90;;
12165;SDS011;6146;48.128;11.476;2022-12-18T01:50:11;30.80;;;17.57;;
12165;SDS011;6146;48.128;11.476;2022-12-18T01:52:43;34.43;;;17.90;;
12165;SDS011;6146;48.128;11.476;2022-12-18T01:55:13;28.57;;;18.10;;
12165;SDS011;6146;48.128;11.476;2022-12-18T01:57:42;29.23;;;17.07;;
12165;SDS011;6146;48.128;11.476;2022-12-18T02:00:12;27.50;;;16.00;;
12165;SDS011;6146;48.128;11.476;2022-12-18T02:02:42;29.23;;;16.73;;
12165;SDS011;6146;48.128;11.476;2022-12-18T02:05:09;29.07;;;16.63;;
12165;SDS011;6146;48.128;11.476;2022-12-18T02:10:29;28.10;;;16.93;;
12165;SDS011;6146;48.128;11.476;2022-12-18T02:13:27;29.37;;;16.87;;
12165;SDS011;6146;48.128;11.476;2022-12-18T02:15:59;30.00;;;17.60;;
12165;SDS011;6146;48.128;11.476;2022-12-18T02:18:34;29.13;;;17.70;;
12165;SDS011;6146;48.128;11.476;2022-12-18T02:23:58;31.07;;;18.50;;
12165;SDS011;6146;48.128;11.476;2022-12-18T02:29:13;36.17;;;20.03;;
12165;SDS011;6146;48.128;11.476;2022-12-18T02:31:44;33.13;;;18.43;;
12165;SDS011;6146;48.128;11.476;2022-12-18T02:34:14;33.57;;;18.47;;
12165;SDS011;6146;48.128;11.476;2022-12-18T02:36:42;32.80;;;18.97;;
12165;SDS011;6146;48.128;11.476;2022-12-18T02:39:10;38.17;;;20.47;;
12165;SDS011;6146;48.128;11.476;2022-12-18T02:41:38;35.53;;;20.73;;
12165;SDS011;6146;48.128;11.476;2022-12-18T02:44:09;33.83;;;19.77;;
12165;SDS011;6146;48.128;11.476;2022-12-18T02:46:45;32.97;;;20.03;;
12165;SDS011;6146;48.128;11.476;2022-12-18T02:51:51;34.10;;;21.10;;
12165;SDS011;6146;48.128;11.476;2022-12-18T02:54:41;38.50;;;20.43;;
12165;SDS011;6146;48.128;11.476;2022-12-18T02:57:55;37.30;;;20.77;;
12165;SDS011;6146;48.128;11.476;2022-12-18T03:00:22;39.27;;;21.37;;
12165;SDS011;6146;48.128;11.476;2022-12-18T03:05:38;43.03;;;22.87;;
12165;SDS011;6146;48.128;11.476;2022-12-18T03:08:26;36.83;;;21.60;;
12165;SDS011;6146;48.128;11.476;2022-12-18T03:10:56;38.97;;;21.30;;
12165;SDS011;6146;48.128;11.476;2022-12-18T03:13:28;43.20;;;23.77;;
12165;SDS011;6146;48.128;11.476;2022-12-18T03:16:02;42.07;;;22.20;;
12165;SDS011;6146;48.128;11.476;2022-12-18T03:18:33;36.80;;;21.57;;
12165;SDS011;6146;48.128;11.476;2022-12-18T03:21:06;36.53;;;19.40;;
12165;SDS011;6146;48.128;11.476;2022-12-18T03:23:37;39.77;;;21.67;;
12165;SDS011;6146;48.128;11.476;2022-12-18T03:26:17;36.47;;;19.83;;
12165;SDS011;6146;48.128;11.476;2022-12-18T03:28:51;38.87;;;21.07;;
12165;SDS011;6146;48.128;11.476;2022-12-18T03:31:23;39.23;;;21.43;;
12165;SDS011;6146;48.128;11.476;2022-12-18T03:33:53;34.87;;;21.87;;
12165;SDS011;6146;48.128;11.476;2022-12-18T03:36:23;36.27;;;21.23;;
12165;SDS011;6146;48.128;11.476;2022-12-18T03:38:50;38.30;;;20.20;;
12165;SDS011;6146;48.128;11.476;2022-12-18T03:46:27;36.83;;;20.60;;
12165;SDS011;6146;48.128;11.476;2022-12-18T03:49:11;34.43;;;18.97;;
12165;SDS011;6146;48.128;11.476;2022-12-18T03:51:48;34.30;;;19.73;;
12165;SDS011;6146;48.128;11.476;2022-12-18T03:54:35;35.97;;;20.37;;
12165;SDS011;6146;48.128;11.476;2022-12-18T03:57:08;35.87;;;18.53;;
12165;SDS011;6146;48.128;11.476;2022-12-18T03:59:38;33.57;;;19.77;;
12165;SDS011;6146;48.128;11.476;2022-12-18T04:02:05;35.90;;;20.37;;
12165;SDS011;6146;48.128;11.476;2022-12-18T04:04:33;40.30;;;22.10;;
12165;SDS011;6146;48.128;11.476;2022-12-18T04:07:00;34.70;;;19.70;;
12165;SDS011;6146;48.128;11.476;2022-12-18T04:09:27;41.23;;;20.40;;
12165;SDS011;6146;48.128;11.476;2022-12-18T04:11:55;31.63;;;19.13;;
12165;SDS011;6146;48.128;11.476;2022-12-18T04:14:20;38.07;;;20.83;;
12165;SDS011;6146;48.128;11.476;2022-12-18T04:16:46;37.77;;;20.97;;
12165;SDS011;6146;48.128;11.476;2022-12-18T04:19:11;39.03;;;21.50;;
12165;SDS011;6146;48.128;11.476;2022-12-18T04:21:37;35.07;;;20.20;;
12165;SDS011;6146;48.128;11.476;2022-12-18T04:24:03;38.27;;;20.73;;
12165;SDS011;6146;48.128;11.476;2022-12-18T04:26:28;32.17;;;18.97;;
12165;SDS011;6146;48.128;11.476;2022-12-18T04:28:54;40.00;;;21.30;;
12165;SDS011;6146;48.128;11.476;2022-12-18T04:31:19;39.63;;;22.60;;
12165;SDS011;6146;48.128;11.476;2022-12-18T04:33:45;40.57;;;21.50;;
12165;SDS011;6146;48.128;11.476;2022-12-18T04:36:10;38.97;;;20.90;;
12165;SDS011;6146;48.128;11.476;2022-12-18T04:38:37;37.40;;;20.73;;
12165;SDS011;6146;48.128;11.476;2022-12-18T04:41:03;38.03;;;20.87;;
12165;SDS011;6146;48.128;11.476;2022-12-18T04:43:28;36.17;;;20.30;;
12165;SDS011;6146;48.128;11.476;2022-12-18T04:46:00;37.13;;;21.27;;
12165;SDS011;6146;48.128;11.476;2022-12-18T04:48:33;36.83;;;21.40;;
12165;SDS011;6146;48.128;11.476;2022-12-18T04:50:59;40.20;;;21.60;;
12165;SDS011;6146;48.128;11.476;2022-12-18T04:53:24;36.30;;;20.57;;
12165;SDS011;6146;48.128;11.476;2022-12-18T04:55:50;41.67;;;21.53;;
12165;SDS011;6146;48.128;11.476;2022-12-18T04:58:16;39.30;;;21.43;;
12165;SDS011;6146;48.128;11.476;2022-12-18T05:00:41;37.73;;;21.83;;
12165;SDS011;6146;48.128;11.476;2022-12-18T05:03:07;36.80;;;21.17;;
12165;SDS011;6146;48.128;11.476;2022-12-18T05:05:34;35.07;;;20.73;;
12165;SDS011;6146;48.128;11.476;2022-12-18T05:08:00;39.23;;;22.40;;
12165;SDS011;6146;48.128;11.476;2022-12-18T05:10:25;39.03;;;21.97;;
12165;SDS011;6146;48.128;11.476;2022-12-18T05:12:51;40.73;;;22.23;;
12165;SDS011;6146;48.128;11.476;2022-12-18T05:15:23;38.13;;;21.80;;
12165;SDS011;6146;48.128;11.476;2022-12-18T05:17:49;37.37;;;19.67;;
12165;SDS011;6146;48.128;11.476;2022-12-18T05:20:15;39.63;;;21.50;;
12165;SDS011;6146;48.128;11.476;2022-12-18T05:22:40;39.90;;;21.33;;
12165;SDS011;6146;48.128;11.476;2022-12-18T05:25:06;35.80;;;20.37;;
12165;SDS011;6146;48.128;11.476;2022-12-18T05:27:32;37.67;;;20.97;;
12165;SDS011;6146;48.128;11.476;2022-12-18T05:29:57;37.77;;;20.40;;
12165;SDS011;6146;48.128;11.476;2022-12-18T05:32:23;37.20;;;21.00;;
12165;SDS011;6146;48.128;11.476;2022-12-18T05:34:49;35.10;;;18.87;;
12165;SDS011;6146;48.128;11.476;2022-12-18T05:37:14;35.83;;;20.17;;
12165;SDS011;6146;48.128;11.476;2022-12-18T05:39:40;29.93;;;17.37;;
12165;SDS011;6146;48.128;11.476;2022-12-18T05:42:05;32.80;;;18.60;;
12165;SDS011;6146;48.128;11.476;2022-12-18T05:44:31;35.33;;;19.57;;
12165;SDS011;6146;48.128;11.476;2022-12-18T05:46:56;31.93;;;19.27;;
12165;SDS011;6146;48.128;11.476;2022-12-18T05:49:22;32.80;;;18.30;;
12165;SDS011;6146;48.128;11.476;2022-12-18T05:51:47;32.23;;;18.07;;
12165;SDS011;6146;48.128;11.476;2022-12-18T05:54:13;35.10;;;19.60;;
12165;SDS011;6146;48.128;11.476;2022-12-18T05:56:38;29.33;;;17.97;;
12165;SDS011;6146;48.128;11.476;2022-12-18T05:59:04;31.60;;;18.13;;
12165;SDS011;6146;48.128;11.476;2022-12-18T06:01:29;30.83;;;18.20;;
12165;SDS011;6146;48.128;11.476;2022-12-18T06:03:55;31.63;;;17.27;;
12165;SDS011;6146;48.128;11.476;2022-12-18T06:06:25;31.20;;;18.93;;
12165;SDS011;6146;48.128;11.476;2022-12-18T06:08:53;29.80;;;17.93;;
12165;SDS011;6146;48.128;11.476;2022-12-18T06:11:21;32.37;;;18.00;;
12165;SDS011;6146;48.128;11.476;2022-12-18T06:13:52;33.53;;;18.27;;
12165;SDS011;6146;48.128;11.476;2022-12-18T06:16:19;31.83;;;18.63;;
12165;SDS011;6146;48.128;11.476;2022-12-18T06:18:45;30.83;;;18.50;;
12165;SDS011;6146;48.128;11.476;2022-12-18T06:21:11;34.13;;;18.57;;
12165;SDS011;6146;48.128;11.476;2022-12-18T06:23:36;27.27;;;17.17;;
12165;SDS011;6146;48.128;11.476;2022-12-18T06:26:06;30.90;;;17.67;;
12165;SDS011;6146;48.128;11.476;2022-12-18T06:28:33;32.10;;;18.47;;
12165;SDS011;6146;48.128;11.476;2022-12-18T06:30:58;30.80;;;18.53;;
12165;SDS011;6146;48.128;11.476;2022-12-18T06:33:26;28.93;;;17.57;;
12165;SDS011;6146;48.128;11.476;2022-12-18T06:35:52;28.43;;;18.03;;
12165;SDS011;6146;48.128;11.476;2022-12-18T06:38:19;30.13;;;18.00;;
12165;SDS011;6146;48.128;11.476;2022-12-18T06:40:44;30.80;;;18.57;;
12165;SDS011;6146;48.128;11.476;2022-12-18T06:43:10;27.83;;;16.50;;
12165;SDS011;6146;48.128;11.476;2022-12-18T06:45:35;28.63;;;17.00;;
12165;SDS011;6146;48.128;11.476;2022-12-18T06:48:01;29.87;;;17.57;;
12165;SDS011;6146;48.128;11.476;2022-12-18T06:50:26;29.27;;;17.67;;
12165;SDS011;6146;48.128;11.476;2022-12-18T06:52:52;28.87;;;17.13;;
12165;SDS011;6146;48.128;11.476;2022-12-18T06:55:18;30.17;;;18.67;;
12165;SDS011;6146;48.128;11.476;2022-12-18T06:57:43;27.70;;;17.73;;
12165;SDS011;6146;48.128;11.476;2022-12-18T07:00:09;28.87;;;18.13;;
12165;SDS011;6146;48.128;11.476;2022-12-18T07:02:35;29.63;;;17.03;;
12165;SDS011;6146;48.128;11.476;2022-12-18T07:05:01;28.33;;;17.27;;
12165;SDS011;6146;48.128;11.476;2022-12-18T07:07:26;29.23;;;18.50;;
12165;SDS011;6146;48.128;11.476;2022-12-18T07:09:52;33.63;;;19.37;;
12165;SDS011;6146;48.128;11.476;2022-12-18T07:12:17;27.97;;;17.70;;
12165;SDS011;6146;48.128;11.476;2022-12-18T07:14:43;33.93;;;18.97;;
12165;SDS011;6146;48.128;11.476;2022-12-18T07:17:09;29.90;;;18.97;;
12165;SDS011;6146;48.128;11.476;2022-12-18T07:19:34;34.80;;;18.73;;
12165;SDS011;6146;48.128;11.476;2022-12-18T07:22:00;30.17;;;17.13;;
12165;SDS011;6146;48.128;11.476;2022-12-18T07:24:26;32.30;;;18.37;;
12165;SDS011;6146;48.128;11.476;2022-12-18T07:26:52;29.17;;;17.57;;
12165;SDS011;6146;48.128;11.476;2022-12-18T07:29:17;29.33;;;16.43;;
12165;SDS011;6146;48.128;11.476;2022-12-18T07:31:43;25.27;;;15.93;;
12165;SDS011;6146;48.128;11.476;2022-12-18T07:34:12;28.77;;;17.10;;
12165;SDS011;6146;48.128;11.476;2022-12-18T07:36:38;28.20;;;17.97;;
12165;SDS011;6146;48.128;11.476;2022-12-18T07:39:04;31.07;;;18.37;;
12165;SDS011;6146;48.128;11.476;2022-12-18T07:41:29;31.27;;;18.83;;
12165;SDS011;6146;48.128;11.476;2022-12-18T07:43:55;28.10;;;17.33;;
12165;SDS011;6146;48.128;11.476;2022-12-18T07:46:21;29.80;;;17.07;;
12165;SDS011;6146;48.128;11.476;2022-12-18T07:48:47;28.90;;;17.33;;
12165;SDS011;6146;48.128;11.476;2022-12-18T07:51:13;31.97;;;19.00;;
12165;SDS011;6146;48.128;11.476;2022-12-18T07:53:38;30.53;;;16.83;;
12165;SDS011;6146;48.128;11.476;2022-12-18T07:56:05;32.13;;;18.53;;
12165;SDS011;6146;48.128;11.476;2022-12-18T07:58:33;32.50;;;18.27;;
12165;SDS011;6146;48.128;11.476;2022-12-18T08:01:06;28.60;;;17.80;;
12165;SDS011;6146;48.128;11.476;2022-12-18T08:03:33;28.57;;;17.13;;
12165;SDS011;6146;48.128;11.476;2022-12-18T08:06:02;31.13;;;18.27;;
12165;SDS011;6146;48.128;11.476;2022-12-18T08:08:30;32.57;;;18.07;;
12165;SDS011;6146;48.128;11.476;2022-12-18T08:10:56;25.50;;;16.23;;
12165;SDS011;6146;48.128;11.476;2022-12-18T08:13:22;30.63;;;17.93;;
12165;SDS011;6146;48.128;11.476;2022-12-18T08:15:55;32.43;;;18.53;;
12165;SDS011;6146;48.128;11.476;2022-12-18T08:18:25;31.70;;;18.17;;
12165;SDS011;6146;48.128;11.476;2022-12-18T08:20:51;27.87;;;17.10;;
12165;SDS011;6146;48.128;11.476;2022-12-18T08:23:17;31.70;;;17.73;;
12165;SDS011;6146;48.128;11.476;2022-12-18T08:25:43;31.43;;;18.13;;
12165;SDS011;6146;48.128;11.476;2022-12-18T08:28:09;33.10;;;19.27;;
12165;SDS011;6146;48.128;11.476;2022-12-18T08:30:35;31.07;;;17.47;;
12165;SDS011;6146;48.128;11.476;2022-12-18T08:33:00;27.33;;;17.37;;
12165;SDS011;6146;48.128;11.476;2022-12-18T08:35:26;28.97;;;18.00;;
12165;SDS011;6146;48.128;11.476;2022-12-18T08:37:52;33.93;;;17.90;;
12165;SDS011;6146;48.128;11.476;2022-12-18T08:40:17;30.27;;;17.87;;
12165;SDS011;6146;48.128;11.476;2022-12-18T08:42:43;29.20;;;18.27;;
12165;SDS011;6146;48.128;11.476;2022-12-18T08:45:27;30.87;;;16.43;;
12165;SDS011;6146;48.128;11.476;2022-12-18T08:47:53;31.50;;;18.37;;
12165;SDS011;6146;48.128;11.476;2022-12-18T08:50:19;32.33;;;18.93;;
12165;SDS011;6146;48.128;11.476;2022-12-18T08:52:45;28.70;;;17.10;;
12165;SDS011;6146;48.128;11.476;2022-12-18T08:55:10;27.33;;;16.07;;
12165;SDS011;6146;48.128;11.476;2022-12-18T08:57:36;26.27;;;17.13;;
12165;SDS011;6146;48.128;11.476;2022-12-18T09:00:02;25.53;;;16.70;;
12165;SDS011;6146;48.128;11.476;2022-12-18T09:02:28;30.60;;;17.93;;
12165;SDS011;6146;48.128;11.476;2022-12-18T09:04:54;29.57;;;17.23;;
12165;SDS011;6146;48.128;11.476;2022-12-18T09:07:19;28.13;;;16.80;;
12165;SDS011;6146;48.128;11.476;2022-12-18T09:09:46;30.77;;;16.67;;
12165;SDS011;6146;48.128;11.476;2022-12-18T09:12:11;29.70;;;17.83;;
12165;SDS011;6146;48.128;11.476;2022-12-18T09:14:37;25.60;;;15.67;;
12165;SDS011;6146;48.128;11.476;2022-12-18T09:17:02;27.00;;;15.73;;
12165;SDS011;6146;48.128;11.476;2022-12-18T09:19:28;26.80;;;16.40;;
12165;SDS011;6146;48.128;11.476;2022-12-18T09:21:54;26.67;;;17.27;;
12165;SDS011;6146;48.128;11.476;2022-12-18T09:24:22;27.60;;;17.03;;
12165;SDS011;6146;48.128;11.476;2022-12-18T09:26:48;25.17;;;16.33;;
12165;SDS011;6146;48.128;11.476;2022-12-18T09:29:14;26.10;;;16.00;;
12165;SDS011;6146;48.128;11.476;2022-12-18T09:31:40;23.87;;;15.80;;
12165;SDS011;6146;48.128;11.476;2022-12-18T09:34:06;24.97;;;16.07;;
12165;SDS011;6146;48.128;11.476;2022-12-18T09:36:32;26.90;;;15.77;;
12165;SDS011;6146;48.128;11.476;2022-12-18T09:38:58;27.43;;;17.10;;
12165;SDS011;6146;48.128;11.476;2022-12-18T09:41:33;26.27;;;16.83;;
12165;SDS011;6146;48.128;11.476;2022-12-18T09:44:14;25.60;;;15.37;;
12165;SDS011;6146;48.128;11.476;2022-12-18T09:47:03;26.80;;;16.07;;
12165;SDS011;6146;48.128;11.476;2022-12-18T09:49:42;29.47;;;16.93;;
12165;SDS011;6146;48.128;11.476;2022-12-18T09:54:52;27.20;;;16.70;;
12165;SDS011;6146;48.128;11.476;2022-12-18T09:57:22;26.60;;;15.37;;
12165;SDS011;6146;48.128;11.476;2022-12-18T09:59:59;21.90;;;14.70;;
12165;SDS011;6146;48.128;11.476;2022-12-18T10:02:32;25.80;;;15.50;;
12165;SDS011;6146;48.128;11.476;2022-12-18T10:05:03;25.43;;;16.00;;
12165;SDS011;6146;48.128;11.476;2022-12-18T10:07:47;24.03;;;14.70;;
12165;SDS011;6146;48.128;11.476;2022-12-18T10:15:50;25.50;;;15.87;;
12165;SDS011;6146;48.128;11.476;2022-12-18T10:21:39;24.40;;;14.57;;
12165;SDS011;6146;48.128;11.476;2022-12-18T10:27:09;21.93;;;14.90;;
12165;SDS011;6146;48.128;11.476;2022-12-18T10:29:41;26.80;;;15.50;;
12165;SDS011;6146;48.128;11.476;2022-12-18T10:32:14;24.83;;;13.93;;
12165;SDS011;6146;48.128;11.476;2022-12-18T10:34:48;23.63;;;14.47;;
12165;SDS011;6146;48.128;11.476;2022-12-18T10:37:19;21.90;;;13.93;;
12165;SDS011;6146;48.128;11.476;2022-12-18T10:40:04;24.47;;;14.43;;
12165;SDS011;6146;48.128;11.476;2022-12-18T10:42:38;24.67;;;14.70;;
12165;SDS011;6146;48.128;11.476;2022-12-18T10:45:09;24.17;;;15.03;;
12165;SDS011;6146;48.128;11.476;2022-12-18T10:47:46;25.70;;;15.43;;
12165;SDS011;6146;48.128;11.476;2022-12-18T10:50:18;22.43;;;14.17;;
12165;SDS011;6146;48.128;11.476;2022-12-18T10:52:54;23.00;;;15.13;;
12165;SDS011;6146;48.128;11.476;2022-12-18T10:55:32;23.53;;;13.67;;
12165;SDS011;6146;48.128;11.476;2022-12-18T10:58:23;25.27;;;15.43;;
12165;SDS011;6146;48.128;11.476;2022-12-18T11:03:41;27.03;;;16.80;;
12165;SDS011;6146;48.128;11.476;2022-12-18T11:06:20;23.20;;;14.60;;
12165;SDS011;6146;48.128;11.476;2022-12-18T11:11:26;26.13;;;15.33;;
12165;SDS011;6146;48.128;11.476;2022-12-18T11:16:36;25.27;;;15.77;;
12165;SDS011;6146;48.128;11.476;2022-12-18T11:19:19;24.90;;;16.67;;
12165;SDS011;6146;48.128;11.476;2022-12-18T11:21:49;26.30;;;14.93;;
12165;SDS011;6146;48.128;11.476;2022-12-18T11:24:34;22.17;;;14.30;;
12165;SDS011;6146;48.128;11.476;2022-12-18T11:27:01;24.27;;;14.90;;
12165;SDS011;6146;48.128;11.476;2022-12-18T11:29:39;25.90;;;15.17;;
12165;SDS011;6146;48.128;11.476;2022-12-18T11:34:39;23.93;;;15.73;;
12165;SDS011;6146;48.128;11.476;2022-12-18T11:37:10;25.27;;;14.23;;
12165;SDS011;6146;48.128;11.476;2022-12-18T11:39:41;23.33;;;14.63;;
12165;SDS011;6146;48.128;11.476;2022-12-18T11:42:12;25.67;;;15.87;;
12165;SDS011;6146;48.128;11.476;2022-12-18T11:45:02;25.77;;;15.10;;
12165;SDS011;6146;48.128;11.476;2022-12-18T11:50:26;23.57;;;14.87;;
12165;SDS011;6146;48.128;11.476;2022-12-18T11:52:58;23.70;;;14.67;;
12165;SDS011;6146;48.128;11.476;2022-12-18T11:55:28;21.20;;;14.13;;
12165;SDS011;6146;48.128;11.476;2022-12-18T12:01:09;23.17;;;14.77;;
12165;SDS011;6146;48.128;11.476;2022-12-18T12:09:26;21.57;;;14.07;;
12165;SDS011;6146;48.128;11.476;2022-12-18T12:12:13;25.53;;;15.37;;
12165;SDS011;6146;48.128;11.476;2022-12-18T12:15:13;22.80;;;14.60;;
12165;SDS011;6146;48.128;11.476;2022-12-18T12:23:53;23.67;;;13.87;;
12165;SDS011;6146;48.128;11.476;2022-12-18T12:26:32;22.60;;;13.60;;
12165;SDS011;6146;48.128;11.476;2022-12-18T12:29:10;19.97;;;13.70;;
12165;SDS011;6146;48.128;11.476;2022-12-18T12:34:26;22.23;;;14.30;;
12165;SDS011;6146;48.128;11.476;2022-12-18T12:39:40;22.43;;;14.93;;
12165;SDS011;6146;48.128;11.476;2022-12-18T12:42:13;25.77;;;15.77;;
12165;SDS011;6146;48.128;11.476;2022-12-18T12:45:06;25.13;;;15.77;;
12165;SDS011;6146;48.128;11.476;2022-12-18T12:47:43;23.00;;;14.07;;
12165;SDS011;6146;48.128;11.476;2022-12-18T12:50:13;21.00;;;14.57;;
12165;SDS011;6146;48.128;11.476;2022-12-18T12:52:42;24.33;;;14.87;;
12165;SDS011;6146;48.128;11.476;2022-12-18T12:55:14;24.37;;;14.90;;
12165;SDS011;6146;48.128;11.476;2022-12-18T12:57:56;25.63;;;14.87;;
12165;SDS011;6146;48.128;11.476;2022-12-18T13:00:24;24.60;;;15.70;;
12165;SDS011;6146;48.128;11.476;2022-12-18T13:07:53;23.10;;;14.80;;
12165;SDS011;6146;48.128;11.476;2022-12-18T13:10:28;24.33;;;15.63;;
12165;SDS011;6146;48.128;11.476;2022-12-18T13:18:12;25.47;;;15.87;;
12165;SDS011;6146;48.128;11.476;2022-12-18T13:20:45;24.07;;;15.60;;
12165;SDS011;6146;48.128;11.476;2022-12-18T13:25:52;25.20;;;15.70;;
12165;SDS011;6146;48.128;11.476;2022-12-18T13:30:59;24.33;;;16.23;;
12165;SDS011;6146;48.128;11.476;2022-12-18T13:38:41;25.53;;;16.10;;
12165;SDS011;6146;48.128;11.476;2022-12-18T13:43:44;24.67;;;15.77;;
12165;SDS011;6146;48.128;11.476;2022-12-18T13:46:42;25.63;;;16.47;;
12165;SDS011;6146;48.128;11.476;2022-12-18T13:51:38;21.53;;;14.80;;
12165;SDS011;6146;48.128;11.476;2022-12-18T13:54:14;19.77;;;14.13;;
12165;SDS011;6146;48.128;11.476;2022-12-18T13:56:43;21.30;;;15.33;;
12165;SDS011;6146;48.128;11.476;2022-12-18T13:59:19;25.60;;;15.97;;
12165;SDS011;6146;48.128;11.476;2022-12-18T14:04:24;25.57;;;15.20;;
12165;SDS011;6146;48.128;11.476;2022-12-18T14:07:12;22.90;;;14.33;;
12165;SDS011;6146;48.128;11.476;2022-12-18T14:09:42;24.37;;;14.60;;
12165;SDS011;6146;48.128;11.476;2022-12-18T14:17:50;24.87;;;15.50;;
12165;SDS011;6146;48.128;11.476;2022-12-18T14:20:24;23.77;;;14.63;;
12165;SDS011;6146;48.128;11.476;2022-12-18T14:22:51;23.80;;;15.73;;
12165;SDS011;6146;48.128;11.476;2022-12-18T14:25:19;23.93;;;14.73;;
12165;SDS011;6146;48.128;11.476;2022-12-18T14:30:40;27.70;;;15.67;;
12165;SDS011;6146;48.128;11.476;2022-12-18T14:38:31;25.17;;;15.23;;
12165;SDS011;6146;48.128;11.476;2022-12-18T14:41:00;25.93;;;16.03;;
12165;SDS011;6146;48.128;11.476;2022-12-18T14:43:35;27.77;;;16.37;;
12165;SDS011;6146;48.128;11.476;2022-12-18T14:46:02;22.73;;;15.60;;
12165;SDS011;6146;48.128;11.476;2022-12-18T14:51:16;23.23;;;15.70;;
12165;SDS011;6146;48.128;11.476;2022-12-18T14:56:15;24.40;;;15.43;;
12165;SDS011;6146;48.128;11.476;2022-12-18T14:58:54;26.10;;;15.47;;
12165;SDS011;6146;48.128;11.476;2022-12-18T15:01:24;25.67;;;15.20;;
12165;SDS011;6146;48.128;11.476;2022-12-18T15:03:52;27.13;;;14.93;;
12165;SDS011;6146;48.128;11.476;2022-12-18T15:09:05;25.03;;;16.37;;
12165;SDS011;6146;48.128;11.476;2022-12-18T15:11:49;23.93;;;15.27;;
12165;SDS011;6146;48.128;11.476;2022-12-18T15:14:31;27.00;;;16.23;;
12165;SDS011;6146;48.128;11.476;2022-12-18T15:17:01;26.70;;;15.20;;
12165;SDS011;6146;48.128;11.476;2022-12-18T15:19:41;25.70;;;15.70;;
12165;SDS011;6146;48.128;11.476;2022-12-18T15:22:22;111.57;;;30.77;;
12165;SDS011;6146;48.128;11.476;2022-12-18T15:24:51;30.07;;;17.10;;
12165;SDS011;6146;48.128;11.476;2022-12-18T15:27:22;29.00;;;16.57;;
12165;SDS011;6146;48.128;11.476;2022-12-18T15:32:34;27.40;;;17.57;;
12165;SDS011;6146;48.128;11.476;2022-12-18T15:37:33;29.93;;;16.97;;
12165;SDS011;6146;48.128;11.476;2022-12-18T15:39:59;30.00;;;17.60;;
12165;SDS011;6146;48.128;11.476;2022-12-18T15:42:24;31.30;;;18.27;;
12165;SDS011;6146;48.128;11.476;2022-12-18T15:45:11;30.33;;;17.97;;
12165;SDS011;6146;48.128;11.476;2022-12-18T15:47:38;29.07;;;18.13;;
12165;SDS011;6146;48.128;11.476;2022-12-18T15:50:04;31.43;;;18.10;;
12165;SDS011;6146;48.128;11.476;2022-12-18T15:52:30;32.00;;;17.43;;
12165;SDS011;6146;48.128;11.476;2022-12-18T15:55:04;27.60;;;17.17;;
12165;SDS011;6146;48.128;11.476;2022-12-18T15:57:53;29.10;;;16.73;;
12165;SDS011;6146;48.128;11.476;2022-12-18T16:00:18;30.87;;;17.73;;
12165;SDS011;6146;48.128;11.476;2022-12-18T16:02:44;27.60;;;16.57;;
12165;SDS011;6146;48.128;11.476;2022-12-18T16:05:13;28.07;;;16.87;;
12165;SDS011;6146;48.128;11.476;2022-12-18T16:07:40;28.03;;;17.90;;
12165;SDS011;6146;48.128;11.476;2022-12-18T16:10:05;28.87;;;17.53;;
12165;SDS011;6146;48.128;11.476;2022-12-18T16:12:31;29.70;;;16.37;;
12165;SDS011;6146;48.128;11.476;2022-12-18T16:14:57;29.83;;;17.90;;
12165;SDS011;6146;48.128;11.476;2022-12-18T16:17:22;27.47;;;16.80;;
12165;SDS011;6146;48.128;11.476;2022-12-18T16:19:48;27.23;;;16.57;;
12165;SDS011;6146;48.128;11.476;2022-12-18T16:22:17;29.07;;;17.27;;
12165;SDS011;6146;48.128;11.476;2022-12-18T16:24:46;29.67;;;17.37;;
12165;SDS011;6146;48.128;11.476;2022-12-18T16:27:11;26.43;;;15.97;;
12165;SDS011;6146;48.128;11.476;2022-12-18T16:29:37;31.37;;;17.23;;
12165;SDS011;6146;48.128;11.476;2022-12-18T16:32:02;28.80;;;17.73;;
12165;SDS011;6146;48.128;11.476;2022-12-18T16:34:29;29.20;;;17.57;;
12165;SDS011;6146;48.128;11.476;2022-12-18T16:36:57;29.97;;;17.53;;
12165;SDS011;6146;48.128;11.476;2022-12-18T16:39:25;29.73;;;17.90;;
12165;SDS011;6146;48.128;11.476;2022-12-18T16:41:51;32.73;;;19.27;;
12165;SDS011;6146;48.128;11.476;2022-12-18T16:44:17;31.47;;;18.17;;
12165;SDS011;6146;48.128;11.476;2022-12-18T16:46:42;34.67;;;18.83;;